createdAt,value
2023-04-15T00:00:13.866Z,642.00
2023-04-15T00:01:13.855Z,643.00
2023-04-15T00:02:13.896Z,644.00
2023-04-15T00:03:14.620Z,644.00
2023-04-15T00:04:13.969Z,642.00
2023-04-15T00:05:13.909Z,643.00
2023-04-15T00:06:13.913Z,641.00
2023-04-15T00:07:13.953Z,639.00
2023-04-15T00:08:13.951Z,640.00
2023-04-15T00:09:13.989Z,639.00
2023-04-15T00:10:14.027Z,637.00
2023-04-15T00:11:14.065Z,637.00
2023-04-15T00:12:14.109Z,636.00
2023-04-15T00:13:14.203Z,634.00
2023-04-15T00:14:14.168Z,636.00
2023-04-15T00:15:14.237Z,637.00
2023-04-15T00:16:14.301Z,635.00
2023-04-15T00:17:14.269Z,635.00
2023-04-15T00:18:14.313Z,634.00
2023-04-15T00:19:14.339Z,634.00
2023-04-15T00:20:14.382Z,635.00
2023-04-15T00:21:14.421Z,636.00
2023-04-15T00:22:14.444Z,638.00
2023-04-15T00:23:14.523Z,639.00
2023-04-15T00:24:14.509Z,635.00
2023-04-15T00:25:14.536Z,634.00
2023-04-15T00:26:14.576Z,634.00
2023-04-15T00:27:14.624Z,634.00
2023-04-15T00:28:14.638Z,636.00
2023-04-15T00:29:14.680Z,636.00
2023-04-15T00:30:14.726Z,637.00
2023-04-15T00:31:14.769Z,638.00
2023-04-15T00:32:14.776Z,636.00
2023-04-15T00:33:14.799Z,635.00
2023-04-15T00:34:14.844Z,636.00
2023-04-15T00:35:14.875Z,637.00
2023-04-15T00:36:14.897Z,635.00
2023-04-15T00:37:14.921Z,635.00
2023-04-15T00:38:14.956Z,634.00
2023-04-15T00:39:15.012Z,635.00
2023-04-15T00:40:15.028Z,633.00
2023-04-15T00:41:15.050Z,634.00
2023-04-15T00:42:15.102Z,636.00
2023-04-15T00:43:15.139Z,636.00
2023-04-15T00:44:15.172Z,636.00
2023-04-15T00:45:15.244Z,637.00
2023-04-15T00:46:15.301Z,635.00
2023-04-15T00:47:15.318Z,632.00
2023-04-15T00:48:15.372Z,630.00
2023-04-15T00:49:15.395Z,632.00
2023-04-15T00:50:15.424Z,634.00
2023-04-15T00:51:15.483Z,632.00
2023-04-15T00:52:15.519Z,629.00
2023-04-15T00:53:15.576Z,625.00
2023-04-15T00:54:15.692Z,623.00
2023-04-15T00:55:15.676Z,622.00
2023-04-15T00:56:15.731Z,622.00
2023-04-15T00:57:15.763Z,624.00
2023-04-15T00:58:15.810Z,626.00
2023-04-15T00:59:15.848Z,627.00
2023-04-15T01:00:15.908Z,629.00
2023-04-15T01:01:15.975Z,628.00
2023-04-15T01:02:16.146Z,626.00
2023-04-15T01:03:16.259Z,627.00
2023-04-15T01:04:16.166Z,626.00
2023-04-15T01:05:16.148Z,624.00
2023-04-15T01:06:16.199Z,624.00
2023-04-15T01:07:16.237Z,619.00
2023-04-15T01:08:16.322Z,620.00
2023-04-15T01:09:16.398Z,619.00
2023-04-15T01:10:16.375Z,620.00
2023-04-15T01:11:16.442Z,622.00
2023-04-15T01:12:16.482Z,619.00
2023-04-15T01:13:16.518Z,618.00
2023-04-15T01:14:16.587Z,618.00
2023-04-15T01:15:16.630Z,619.00
2023-04-15T01:16:16.706Z,619.00
2023-04-15T01:17:16.715Z,620.00
2023-04-15T01:18:16.797Z,622.00
2023-04-15T01:19:16.884Z,623.00
2023-04-15T01:20:16.908Z,626.00
2023-04-15T01:21:16.964Z,624.00
2023-04-15T01:22:16.978Z,622.00
2023-04-15T01:23:17.057Z,621.00
2023-04-15T01:24:17.088Z,623.00
2023-04-15T01:25:17.137Z,622.00
2023-04-15T01:26:17.192Z,622.00
2023-04-15T01:27:17.250Z,623.00
2023-04-15T01:28:17.297Z,620.00
2023-04-15T01:29:17.371Z,620.00
2023-04-15T01:30:17.395Z,622.00
2023-04-15T01:31:17.530Z,618.00
2023-04-15T01:32:17.498Z,617.00
2023-04-15T01:33:17.569Z,618.00
2023-04-15T01:34:17.618Z,619.00
2023-04-15T01:35:17.694Z,619.00
2023-04-15T01:36:17.743Z,617.00
2023-04-15T01:37:17.789Z,619.00
2023-04-15T01:38:17.878Z,618.00
2023-04-15T01:39:17.917Z,617.00
2023-04-15T01:40:17.981Z,615.00
2023-04-15T01:41:18.004Z,614.00
2023-04-15T01:42:18.072Z,615.00
2023-04-15T01:43:18.143Z,613.00
2023-04-15T01:44:18.177Z,612.00
2023-04-15T01:45:18.220Z,611.00
2023-04-15T01:46:18.388Z,613.00
2023-04-15T01:47:18.340Z,614.00
2023-04-15T01:48:18.373Z,613.00
2023-04-15T01:49:18.462Z,612.00
2023-04-15T01:50:18.508Z,610.00
2023-04-15T01:51:18.538Z,611.00
2023-04-15T01:52:18.607Z,612.00
2023-04-15T01:53:18.655Z,610.00
2023-04-15T01:54:18.714Z,608.00
2023-04-15T01:55:18.782Z,604.00
2023-04-15T01:56:18.832Z,602.00
2023-04-15T01:57:18.881Z,604.00
2023-04-15T01:58:18.934Z,603.00
2023-04-15T01:59:19.012Z,603.00
2023-04-15T02:00:19.076Z,601.00
2023-04-15T02:01:19.171Z,601.00
2023-04-15T02:02:19.216Z,600.00
2023-04-15T02:03:19.420Z,599.00
2023-04-15T02:04:19.304Z,600.00
2023-04-15T02:05:19.349Z,600.00
2023-04-15T02:06:19.401Z,600.00
2023-04-15T02:07:19.461Z,601.00
2023-04-15T02:08:19.542Z,603.00
2023-04-15T02:09:19.612Z,603.00
2023-04-15T02:10:19.621Z,602.00
2023-04-15T02:11:19.707Z,604.00
2023-04-15T02:12:19.715Z,604.00
2023-04-15T02:13:19.781Z,599.00
2023-04-15T02:14:19.839Z,600.00
2023-04-15T02:15:19.897Z,603.00
2023-04-15T02:16:19.984Z,604.00
2023-04-15T02:17:20.047Z,606.00
2023-04-15T02:18:20.064Z,603.00
2023-04-15T02:19:20.142Z,599.00
2023-04-15T02:20:20.206Z,597.00
2023-04-15T02:21:20.220Z,596.00
2023-04-15T02:22:20.292Z,595.00
2023-04-15T02:23:20.342Z,594.00
2023-04-15T02:24:20.406Z,594.00
2023-04-15T02:25:20.470Z,595.00
2023-04-15T02:26:20.495Z,596.00
2023-04-15T02:27:20.620Z,598.00
2023-04-15T02:28:20.623Z,599.00
2023-04-15T02:29:20.692Z,597.00
2023-04-15T02:30:20.760Z,594.00
2023-04-15T02:31:20.851Z,596.00
2023-04-15T02:32:20.911Z,595.00
2023-04-15T02:33:20.944Z,595.00
2023-04-15T02:34:20.982Z,592.00
2023-04-15T02:35:21.083Z,592.00
2023-04-15T02:36:21.095Z,592.00
2023-04-15T02:37:21.129Z,592.00
2023-04-15T02:38:21.185Z,595.00
2023-04-15T02:39:21.268Z,592.00
2023-04-15T02:40:21.331Z,594.00
2023-04-15T02:41:21.368Z,594.00
2023-04-15T02:42:21.439Z,594.00
2023-04-15T02:43:21.482Z,593.00
2023-04-15T02:44:21.545Z,590.00
2023-04-15T02:45:21.608Z,589.00
2023-04-15T02:46:21.675Z,588.00
2023-04-15T02:47:21.728Z,586.00
2023-04-15T02:48:21.834Z,585.00
2023-04-15T02:49:21.823Z,587.00
2023-04-15T02:50:21.902Z,585.00
2023-04-15T02:51:21.942Z,583.00
2023-04-15T02:52:22.013Z,581.00
2023-04-15T02:53:22.091Z,581.00
2023-04-15T02:54:22.121Z,583.00
2023-04-15T02:55:22.198Z,585.00
2023-04-15T02:56:22.331Z,587.00
2023-04-15T02:57:22.271Z,589.00
2023-04-15T02:58:22.339Z,590.00
2023-04-15T02:59:22.399Z,588.00
2023-04-15T03:00:22.442Z,586.00
2023-04-15T03:01:22.533Z,584.00
2023-04-15T03:02:22.732Z,583.00
2023-04-15T03:03:22.729Z,583.00
2023-04-15T03:04:22.696Z,585.00
2023-04-15T03:05:22.729Z,585.00
2023-04-15T03:06:22.794Z,583.00
2023-04-15T03:07:22.861Z,582.00
2023-04-15T03:08:22.913Z,581.00
2023-04-15T03:09:22.949Z,581.00
2023-04-15T03:10:23.010Z,579.00
2023-04-15T03:11:23.053Z,579.00
2023-04-15T03:12:23.106Z,579.00
2023-04-15T03:13:23.179Z,579.00
2023-04-15T03:14:23.243Z,582.00
2023-04-15T03:15:23.323Z,584.00
2023-04-15T03:16:23.376Z,582.00
2023-04-15T03:17:23.436Z,585.00
2023-04-15T03:18:23.469Z,583.00
2023-04-15T03:19:23.542Z,583.00
2023-04-15T03:20:23.654Z,584.00
2023-04-15T03:21:23.679Z,582.00
2023-04-15T03:22:23.710Z,578.00
2023-04-15T03:23:23.804Z,574.00
2023-04-15T03:24:23.845Z,572.00
2023-04-15T03:25:23.921Z,572.00
2023-04-15T03:26:23.954Z,572.00
2023-04-15T03:27:24.024Z,572.00
2023-04-15T03:28:24.084Z,570.00
2023-04-15T03:29:24.167Z,569.00
2023-04-15T03:30:24.210Z,570.00
2023-04-15T03:31:24.309Z,569.00
2023-04-15T03:32:24.316Z,567.00
2023-04-15T03:33:24.367Z,569.00
2023-04-15T03:34:24.436Z,568.00
2023-04-15T03:35:24.491Z,570.00
2023-04-15T03:36:24.555Z,571.00
2023-04-15T03:37:24.647Z,573.00
2023-04-15T03:38:24.691Z,571.00
2023-04-15T03:39:24.748Z,570.00
2023-04-15T03:40:24.828Z,569.00
2023-04-15T03:41:24.913Z,568.00
2023-04-15T03:42:24.895Z,566.00
2023-04-15T03:43:24.981Z,567.00
2023-04-15T03:44:25.010Z,566.00
2023-04-15T03:45:25.089Z,566.00
2023-04-15T03:46:25.204Z,568.00
2023-04-15T03:47:25.248Z,569.00
2023-04-15T03:48:25.243Z,571.00
2023-04-15T03:49:25.314Z,570.00
2023-04-15T03:50:25.394Z,569.00
2023-04-15T03:51:25.407Z,567.00
2023-04-15T03:52:25.467Z,565.00
2023-04-15T03:53:25.504Z,565.00
2023-04-15T03:54:25.568Z,566.00
2023-04-15T03:55:25.644Z,568.00
2023-04-15T03:56:25.718Z,566.00
2023-04-15T03:57:25.739Z,568.00
2023-04-15T03:58:25.784Z,567.00
2023-04-15T03:59:25.858Z,568.00
2023-04-15T04:00:25.882Z,568.00
2023-04-15T04:01:25.969Z,568.00
2023-04-15T04:02:26.182Z,565.00
2023-04-15T04:03:26.215Z,561.00
2023-04-15T04:04:26.181Z,562.00
2023-04-15T04:05:26.176Z,562.00
2023-04-15T04:06:26.246Z,561.00
2023-04-15T04:07:26.282Z,559.00
2023-04-15T04:08:26.350Z,558.00
2023-04-15T04:09:26.417Z,557.00
2023-04-15T04:10:26.932Z,557.00
2023-04-15T04:11:27.427Z,558.00
2023-04-15T04:12:26.593Z,558.00
2023-04-15T04:13:26.662Z,560.00
2023-04-15T04:14:26.757Z,561.00
2023-04-15T04:15:26.818Z,560.00
2023-04-15T04:16:26.938Z,558.00
2023-04-15T04:17:26.937Z,557.00
2023-04-15T04:18:26.962Z,557.00
2023-04-15T04:19:27.054Z,556.00
2023-04-15T04:20:27.147Z,554.00
2023-04-15T04:21:27.143Z,554.00
2023-04-15T04:22:27.187Z,555.00
2023-04-15T04:23:27.281Z,556.00
2023-04-15T04:24:27.327Z,556.00
2023-04-15T04:25:27.458Z,555.00
2023-04-15T04:26:27.434Z,554.00
2023-04-15T04:27:27.504Z,557.00
2023-04-15T04:28:27.573Z,561.00
2023-04-15T04:29:27.619Z,562.00
2023-04-15T04:30:27.668Z,562.00
2023-04-15T04:31:27.760Z,561.00
2023-04-15T04:32:27.833Z,560.00
2023-04-15T04:33:27.858Z,560.00
2023-04-15T04:34:27.943Z,561.00
2023-04-15T04:35:27.979Z,563.00
2023-04-15T04:36:28.051Z,560.00
2023-04-15T04:37:28.096Z,555.00
2023-04-15T04:38:28.184Z,553.00
2023-04-15T04:39:28.240Z,555.00
2023-04-15T04:40:28.311Z,557.00
2023-04-15T04:41:28.350Z,556.00
2023-04-15T04:42:28.413Z,556.00
2023-04-15T04:43:28.466Z,556.00
2023-04-15T04:44:28.548Z,557.00
2023-04-15T04:45:28.610Z,556.00
2023-04-15T04:46:28.671Z,560.00
2023-04-15T04:47:28.753Z,560.00
2023-04-15T04:48:28.763Z,558.00
2023-04-15T04:49:28.851Z,557.00
2023-04-15T04:50:28.939Z,555.00
2023-04-15T04:51:28.967Z,553.00
2023-04-15T04:52:29.044Z,552.00
2023-04-15T04:53:29.104Z,552.00
2023-04-15T04:54:29.155Z,553.00
2023-04-15T04:55:29.206Z,551.00
2023-04-15T04:56:29.316Z,552.00
2023-04-15T04:57:29.319Z,550.00
2023-04-15T04:58:29.415Z,550.00
2023-04-15T04:59:29.496Z,550.00
2023-04-15T05:00:29.531Z,552.00
2023-04-15T05:01:29.653Z,552.00
2023-04-15T05:02:29.767Z,549.00
2023-04-15T05:03:29.807Z,551.00
2023-04-15T05:04:29.771Z,552.00
2023-04-15T05:05:29.851Z,550.00
2023-04-15T05:06:29.912Z,551.00
2023-04-15T05:07:29.960Z,548.00
2023-04-15T05:08:30.021Z,547.00
2023-04-15T05:09:30.074Z,544.00
2023-04-15T05:10:30.196Z,547.00
2023-04-15T05:11:30.205Z,549.00
2023-04-15T05:12:30.295Z,547.00
2023-04-15T05:13:30.324Z,549.00
2023-04-15T05:14:30.401Z,547.00
2023-04-15T05:15:30.499Z,548.00
2023-04-15T05:16:30.541Z,547.00
2023-04-15T05:17:30.619Z,547.00
2023-04-15T05:18:30.619Z,548.00
2023-04-15T05:19:30.693Z,546.00
2023-04-15T05:20:30.750Z,545.00
2023-04-15T05:21:30.817Z,545.00
2023-04-15T05:22:30.857Z,546.00
2023-04-15T05:23:30.925Z,543.00
2023-04-15T05:24:30.992Z,540.00
2023-04-15T05:25:31.042Z,538.00
2023-04-15T05:26:31.112Z,539.00
2023-04-15T05:27:31.149Z,541.00
2023-04-15T05:28:31.222Z,540.00
2023-04-15T05:29:31.296Z,540.00
2023-04-15T05:30:31.326Z,541.00
2023-04-15T05:31:31.514Z,541.00
2023-04-15T05:32:31.525Z,541.00
2023-04-15T05:33:31.509Z,542.00
2023-04-15T05:34:31.623Z,543.00
2023-04-15T05:35:31.646Z,543.00
2023-04-15T05:36:31.669Z,544.00
2023-04-15T05:37:31.733Z,542.00
2023-04-15T05:38:31.803Z,541.00
2023-04-15T05:39:31.871Z,540.00
2023-04-15T05:40:31.951Z,541.00
2023-04-15T05:41:31.983Z,542.00
2023-04-15T05:42:32.046Z,540.00
2023-04-15T05:43:32.113Z,539.00
2023-04-15T05:44:32.197Z,537.00
2023-04-15T05:45:32.236Z,539.00
2023-04-15T05:46:32.369Z,536.00
2023-04-15T05:47:32.392Z,537.00
2023-04-15T05:48:32.456Z,536.00
2023-04-15T05:49:32.474Z,538.00
2023-04-15T05:50:32.574Z,537.00
2023-04-15T05:51:32.602Z,536.00
2023-04-15T05:52:32.700Z,536.00
2023-04-15T05:53:32.726Z,536.00
2023-04-15T05:54:32.855Z,536.00
2023-04-15T05:55:32.855Z,537.00
2023-04-15T05:56:32.963Z,536.00
2023-04-15T05:57:32.981Z,533.00
2023-04-15T05:58:33.055Z,536.00
2023-04-15T05:59:33.126Z,538.00
2023-04-15T06:00:33.165Z,537.00
2023-04-15T06:01:33.233Z,537.00
2023-04-15T06:02:33.417Z,536.00
2023-04-15T06:03:33.559Z,538.00
2023-04-15T06:04:33.519Z,538.00
2023-04-15T06:05:33.465Z,538.00
2023-04-15T06:06:33.530Z,535.00
2023-04-15T06:07:33.563Z,534.00
2023-04-15T06:08:33.618Z,532.00
2023-04-15T06:09:33.699Z,531.00
2023-04-15T06:10:33.748Z,530.00
2023-04-15T06:11:33.796Z,532.00
2023-04-15T06:12:33.848Z,532.00
2023-04-15T06:13:33.854Z,533.00
2023-04-15T06:14:33.872Z,533.00
2023-04-15T06:15:33.916Z,532.00
2023-04-15T06:16:34.005Z,532.00
2023-04-15T06:17:33.981Z,531.00
2023-04-15T06:18:33.978Z,531.00
2023-04-15T06:19:34.051Z,531.00
2023-04-15T06:20:34.057Z,532.00
2023-04-15T06:21:34.089Z,531.00
2023-04-15T06:22:34.115Z,532.00
2023-04-15T06:23:34.143Z,529.00
2023-04-15T06:24:34.196Z,529.00
2023-04-15T06:25:34.221Z,529.00
2023-04-15T06:26:34.262Z,529.00
2023-04-15T06:27:34.303Z,529.00
2023-04-15T06:28:34.345Z,528.00
2023-04-15T06:29:34.396Z,526.00
2023-04-15T06:30:34.424Z,527.00
2023-04-15T06:31:34.534Z,529.00
2023-04-15T06:32:34.533Z,531.00
2023-04-15T06:33:34.506Z,529.00
2023-04-15T06:34:34.580Z,528.00
2023-04-15T06:35:34.544Z,529.00
2023-04-15T06:36:34.610Z,528.00
2023-04-15T06:37:34.584Z,526.00
2023-04-15T06:38:34.594Z,524.00
2023-04-15T06:39:34.667Z,523.00
2023-04-15T06:40:34.609Z,521.00
2023-04-15T06:41:34.656Z,521.00
2023-04-15T06:42:34.660Z,525.00
2023-04-15T06:43:34.696Z,525.00
2023-04-15T06:44:34.699Z,522.00
2023-04-15T06:45:34.763Z,520.00
2023-04-15T06:46:34.785Z,519.00
2023-04-15T06:47:34.796Z,519.00
2023-04-15T06:48:34.860Z,520.00
2023-04-15T06:49:34.808Z,522.00
2023-04-15T06:50:34.848Z,521.00
2023-04-15T06:51:34.906Z,520.00
2023-04-15T06:52:34.917Z,520.00
2023-04-15T06:53:34.935Z,518.00
2023-04-15T06:54:34.962Z,516.00
2023-04-15T06:55:35.006Z,518.00
2023-04-15T06:56:35.060Z,517.00
2023-04-15T06:57:35.316Z,516.00
2023-04-15T06:58:35.148Z,516.00
2023-04-15T06:59:35.206Z,514.00
2023-04-15T07:00:35.263Z,514.00
2023-04-15T07:01:35.384Z,514.00
2023-04-15T07:02:35.470Z,514.00
2023-04-15T07:03:35.444Z,517.00
2023-04-15T07:04:35.557Z,517.00
2023-04-15T07:05:35.571Z,520.00
2023-04-15T07:06:35.653Z,521.00
2023-04-15T07:07:35.672Z,522.00
2023-04-15T07:08:35.761Z,521.00
2023-04-15T07:09:35.806Z,518.00
2023-04-15T07:10:35.879Z,518.00
2023-04-15T07:11:35.914Z,515.00
2023-04-15T07:12:35.977Z,517.00
2023-04-15T07:13:36.044Z,518.00
2023-04-15T07:14:36.122Z,518.00
2023-04-15T07:15:36.158Z,517.00
2023-04-15T07:16:36.225Z,516.00
2023-04-15T07:17:36.292Z,517.00
2023-04-15T07:18:36.343Z,518.00
2023-04-15T07:19:36.376Z,517.00
2023-04-15T07:20:36.443Z,518.00
2023-04-15T07:21:36.512Z,516.00
2023-04-15T07:22:36.560Z,517.00
2023-04-15T07:23:36.651Z,516.00
2023-04-15T07:24:36.660Z,516.00
2023-04-15T07:25:36.716Z,516.00
2023-04-15T07:26:36.785Z,514.00
2023-04-15T07:27:36.866Z,514.00
2023-04-15T07:28:36.892Z,512.00
2023-04-15T07:29:36.950Z,512.00
2023-04-15T07:30:37.037Z,510.00
2023-04-15T07:31:37.157Z,510.00
2023-04-15T07:32:37.200Z,511.00
2023-04-15T07:33:37.241Z,512.00
2023-04-15T07:34:37.249Z,514.00
2023-04-15T07:35:37.310Z,514.00
2023-04-15T07:36:37.379Z,514.00
2023-04-15T07:37:37.473Z,513.00
2023-04-15T07:38:37.469Z,514.00
2023-04-15T07:39:37.584Z,514.00
2023-04-15T07:40:37.618Z,515.00
2023-04-15T07:41:37.680Z,515.00
2023-04-15T07:42:39.408Z,513.00
2023-04-15T07:43:37.710Z,512.00
2023-04-15T07:44:37.700Z,512.00
2023-04-15T07:45:37.708Z,513.00
2023-04-15T07:46:37.805Z,513.00
2023-04-15T07:47:37.692Z,517.00
2023-04-15T07:48:37.819Z,514.00
2023-04-15T07:49:37.657Z,515.00
2023-04-15T07:50:37.646Z,514.00
2023-04-15T07:51:37.667Z,514.00
2023-04-15T07:52:37.683Z,514.00
2023-04-15T07:53:37.666Z,514.00
2023-04-15T07:54:37.620Z,514.00
2023-04-15T07:55:37.635Z,514.00
2023-04-15T07:56:37.631Z,515.00
2023-04-15T07:57:37.627Z,513.00
2023-04-15T07:58:37.599Z,509.00
2023-04-15T07:59:37.615Z,511.00
2023-04-15T08:00:37.592Z,509.00
2023-04-15T08:01:37.627Z,508.00
2023-04-15T08:02:40.204Z,509.00
2023-04-15T08:03:37.766Z,509.00
2023-04-15T08:04:37.818Z,513.00
2023-04-15T08:05:37.582Z,515.00
2023-04-15T08:06:37.597Z,515.00
2023-04-15T08:07:37.575Z,515.00
2023-04-15T08:08:37.620Z,514.00
2023-04-15T08:09:37.555Z,512.00
2023-04-15T08:10:37.539Z,513.00
2023-04-15T08:11:37.520Z,511.00
2023-04-15T08:12:37.560Z,511.00
2023-04-15T08:13:37.506Z,510.00
2023-04-15T08:14:37.497Z,508.00
2023-04-15T08:15:37.511Z,507.00
2023-04-15T08:16:37.606Z,507.00
2023-04-15T08:17:37.618Z,509.00
2023-04-15T08:18:37.478Z,512.00
2023-04-15T08:19:37.468Z,510.00
2023-04-15T08:20:37.479Z,508.00
2023-04-15T08:21:37.464Z,509.00
2023-04-15T08:22:37.448Z,508.00
2023-04-15T08:23:37.433Z,506.00
2023-04-15T08:24:37.426Z,507.00
2023-04-15T08:25:37.509Z,507.00
2023-04-15T08:26:37.415Z,508.00
2023-04-15T08:27:37.404Z,507.00
2023-04-15T08:28:37.390Z,508.00
2023-04-15T08:29:37.382Z,506.00
2023-04-15T08:30:37.374Z,504.00
2023-04-15T08:31:37.426Z,503.00
2023-04-15T08:32:37.422Z,501.00
2023-04-15T08:33:37.366Z,502.00
2023-04-15T08:34:37.340Z,501.00
2023-04-15T08:35:37.329Z,499.00
2023-04-15T08:36:37.342Z,502.00
2023-04-15T08:37:37.347Z,502.00
2023-04-15T08:38:37.353Z,503.00
2023-04-15T08:39:37.345Z,503.00
2023-04-15T08:40:37.348Z,504.00
2023-04-15T08:41:37.384Z,505.00
2023-04-15T08:42:37.469Z,504.00
2023-04-15T08:43:37.537Z,505.00
2023-04-15T08:44:37.636Z,505.00
2023-04-15T08:45:37.665Z,508.00
2023-04-15T08:46:37.753Z,507.00
2023-04-15T08:47:37.809Z,506.00
2023-04-15T08:48:37.821Z,505.00
2023-04-15T08:49:37.892Z,506.00
2023-04-15T08:50:37.943Z,505.00
2023-04-15T08:51:38.013Z,501.00
2023-04-15T08:52:38.060Z,498.00
2023-04-15T08:53:38.166Z,498.00
2023-04-15T08:54:38.167Z,496.00
2023-04-15T08:55:38.233Z,496.00
2023-04-15T08:56:38.329Z,495.00
2023-04-15T08:57:38.361Z,496.00
2023-04-15T08:58:38.398Z,495.00
2023-04-15T08:59:38.473Z,495.00
2023-04-15T09:00:38.493Z,495.00
2023-04-15T09:01:38.685Z,491.00
2023-04-15T09:02:38.781Z,487.00
2023-04-15T09:03:38.748Z,487.00
2023-04-15T09:04:38.721Z,486.00
2023-04-15T09:05:38.909Z,486.00
2023-04-15T09:06:38.863Z,487.00
2023-04-15T09:07:38.938Z,490.00
2023-04-15T09:08:38.949Z,491.00
2023-04-15T09:09:39.016Z,490.00
2023-04-15T09:10:39.072Z,489.00
2023-04-15T09:11:39.131Z,486.00
2023-04-15T09:12:39.172Z,486.00
2023-04-15T09:13:39.257Z,489.00
2023-04-15T09:14:39.313Z,489.00
2023-04-15T09:15:39.332Z,488.00
2023-04-15T09:16:39.449Z,489.00
2023-04-15T09:17:39.516Z,487.00
2023-04-15T09:18:39.546Z,488.00
2023-04-15T09:19:40.552Z,488.00
2023-04-15T09:20:39.595Z,487.00
2023-04-15T09:21:39.663Z,487.00
2023-04-15T09:22:39.734Z,485.00
2023-04-15T09:23:39.813Z,486.00
2023-04-15T09:24:39.817Z,489.00
2023-04-15T09:25:39.873Z,490.00
2023-04-15T09:26:39.942Z,490.00
2023-04-15T09:27:39.973Z,488.00
2023-04-15T09:28:40.054Z,487.00
2023-04-15T09:29:40.112Z,488.00
2023-04-15T09:30:40.173Z,486.00
2023-04-15T09:31:40.205Z,486.00
2023-04-15T09:32:40.273Z,486.00
2023-04-15T09:33:40.309Z,486.00
2023-04-15T09:34:40.357Z,485.00
2023-04-15T09:35:40.575Z,483.00
2023-04-15T09:36:40.533Z,483.00
2023-04-15T09:37:40.519Z,480.00
2023-04-15T09:38:40.582Z,481.00
2023-04-15T09:39:40.644Z,481.00
2023-04-15T09:40:40.666Z,481.00
2023-04-15T09:41:40.697Z,482.00
2023-04-15T09:42:40.763Z,484.00
2023-04-15T09:43:40.828Z,483.00
2023-04-15T09:44:40.830Z,483.00
2023-04-15T09:45:40.912Z,484.00
2023-04-15T09:46:40.930Z,482.00
2023-04-15T09:47:41.014Z,481.00
2023-04-15T09:48:41.024Z,478.00
2023-04-15T09:49:41.125Z,479.00
2023-04-15T09:50:41.108Z,480.00
2023-04-15T09:51:42.190Z,481.00
2023-04-15T09:52:41.206Z,480.00
2023-04-15T09:53:41.267Z,478.00
2023-04-15T09:54:41.268Z,478.00
2023-04-15T09:55:41.303Z,477.00
2023-04-15T09:56:41.359Z,476.00
2023-04-15T09:57:41.403Z,476.00
2023-04-15T09:58:41.476Z,475.00
2023-04-15T09:59:41.488Z,479.00
2023-04-15T10:00:41.556Z,481.00
2023-04-15T10:01:41.609Z,483.00
2023-04-15T10:02:41.714Z,483.00
2023-04-15T10:03:41.841Z,482.00
2023-04-15T10:04:41.843Z,481.00
2023-04-15T10:05:41.810Z,483.00
2023-04-15T10:06:41.820Z,485.00
2023-04-15T10:07:41.845Z,486.00
2023-04-15T10:08:41.943Z,488.00
2023-04-15T10:09:42.003Z,486.00
2023-04-15T10:10:41.993Z,482.00
2023-04-15T10:11:42.017Z,484.00
2023-04-15T10:12:42.100Z,483.00
2023-04-15T10:13:42.128Z,483.00
2023-04-15T10:14:42.164Z,484.00
2023-04-15T10:15:42.263Z,482.00
2023-04-15T10:16:42.234Z,484.00
2023-04-15T10:17:42.273Z,483.00
2023-04-15T10:18:42.294Z,484.00
2023-04-15T10:19:42.342Z,484.00
2023-04-15T10:20:42.384Z,483.00
2023-04-15T10:21:42.451Z,480.00
2023-04-15T10:22:42.453Z,479.00
2023-04-15T10:23:42.518Z,479.00
2023-04-15T10:24:42.557Z,481.00
2023-04-15T10:25:42.582Z,480.00
2023-04-15T10:26:42.642Z,481.00
2023-04-15T10:27:42.664Z,480.00
2023-04-15T10:28:42.724Z,482.00
2023-04-15T10:29:42.771Z,484.00
2023-04-15T10:30:42.819Z,485.00
2023-04-15T10:31:42.860Z,489.00
2023-04-15T10:32:43.021Z,490.00
2023-04-15T10:33:42.936Z,491.00
2023-04-15T10:34:43.007Z,484.00
2023-04-15T10:35:43.022Z,484.00
2023-04-15T10:36:43.120Z,484.00
2023-04-15T10:37:43.114Z,482.00
2023-04-15T10:38:43.174Z,481.00
2023-04-15T10:39:43.394Z,483.00
2023-04-15T10:40:43.267Z,484.00
2023-04-15T10:41:43.310Z,483.00
2023-04-15T10:42:43.364Z,483.00
2023-04-15T10:43:43.411Z,482.00
2023-04-15T10:44:43.464Z,481.00
2023-04-15T10:45:43.486Z,483.00
2023-04-15T10:46:43.579Z,482.00
2023-04-15T10:47:43.664Z,482.00
2023-04-15T10:48:43.616Z,481.00
2023-04-15T10:49:43.691Z,478.00
2023-04-15T10:50:43.707Z,476.00
2023-04-15T10:51:43.779Z,476.00
2023-04-15T10:52:43.801Z,478.00
2023-04-15T10:53:43.837Z,479.00
2023-04-15T10:54:43.873Z,480.00
2023-04-15T10:55:43.957Z,480.00
2023-04-15T10:56:43.976Z,479.00
2023-04-15T10:57:44.013Z,477.00
2023-04-15T10:58:44.066Z,479.00
2023-04-15T10:59:44.130Z,477.00
2023-04-15T11:00:44.151Z,477.00
2023-04-15T11:01:44.252Z,478.00
2023-04-15T11:02:44.482Z,479.00
2023-04-15T11:03:44.422Z,479.00
2023-04-15T11:04:44.427Z,478.00
2023-04-15T11:05:44.443Z,478.00
2023-04-15T11:06:44.421Z,478.00
2023-04-15T11:07:44.495Z,476.00
2023-04-15T11:08:44.550Z,476.00
2023-04-15T11:09:44.574Z,474.00
2023-04-15T11:10:44.638Z,476.00
2023-04-15T11:11:45.493Z,477.00
2023-04-15T11:12:44.732Z,479.00
2023-04-15T11:13:44.752Z,480.00
2023-04-15T11:14:44.816Z,478.00
2023-04-15T11:15:44.895Z,478.00
2023-04-15T11:16:45.067Z,477.00
2023-04-15T11:17:46.488Z,478.00
2023-04-15T11:18:44.993Z,478.00
2023-04-15T11:19:45.064Z,478.00
2023-04-15T11:20:45.085Z,478.00
2023-04-15T11:21:45.152Z,477.00
2023-04-15T11:22:45.222Z,476.00
2023-04-15T11:23:45.232Z,472.00
2023-04-15T11:24:45.279Z,472.00
2023-04-15T11:25:45.328Z,473.00
2023-04-15T11:26:45.375Z,473.00
2023-04-15T11:27:45.451Z,475.00
2023-04-15T11:28:45.480Z,475.00
2023-04-15T11:29:45.552Z,474.00
2023-04-15T11:30:45.641Z,473.00
2023-04-15T11:31:45.717Z,473.00
2023-04-15T11:32:45.777Z,475.00
2023-04-15T11:33:45.765Z,477.00
2023-04-15T11:34:45.826Z,473.00
2023-04-15T11:35:45.859Z,474.00
2023-04-15T11:36:45.925Z,474.00
2023-04-15T11:37:45.987Z,474.00
2023-04-15T11:38:46.026Z,475.00
2023-04-15T11:39:46.110Z,475.00
2023-04-15T11:40:47.249Z,475.00
2023-04-15T11:41:46.180Z,476.00
2023-04-15T11:42:49.926Z,476.00
2023-04-15T11:43:46.227Z,476.00
2023-04-15T11:44:46.248Z,474.00
2023-04-15T11:45:46.245Z,473.00
2023-04-15T11:46:46.192Z,472.00
2023-04-15T11:47:46.254Z,474.00
2023-04-15T11:48:46.227Z,476.00
2023-04-15T11:49:46.197Z,476.00
2023-04-15T11:50:46.302Z,476.00
2023-04-15T11:51:46.175Z,477.00
2023-04-15T11:52:46.201Z,478.00
2023-04-15T11:53:46.255Z,477.00
2023-04-15T11:54:46.208Z,475.00
2023-04-15T11:55:46.131Z,474.00
2023-04-15T11:56:46.122Z,475.00
2023-04-15T11:57:46.134Z,476.00
2023-04-15T11:58:46.183Z,475.00
2023-04-15T11:59:46.347Z,473.00
2023-04-15T12:00:46.147Z,473.00
2023-04-15T12:01:46.189Z,475.00
2023-04-15T12:02:46.137Z,477.00
2023-04-15T12:03:46.246Z,479.00
2023-04-15T12:04:46.129Z,481.00
2023-04-15T12:05:46.090Z,484.00
2023-04-15T12:06:46.048Z,485.00
2023-04-15T12:07:46.082Z,484.00
2023-04-15T12:08:46.103Z,487.00
2023-04-15T12:09:46.117Z,486.00
2023-04-15T12:10:46.186Z,488.00
2023-04-15T12:11:46.243Z,490.00
2023-04-15T12:12:46.324Z,486.00
2023-04-15T12:13:46.322Z,487.00
2023-04-15T12:14:46.391Z,487.00
2023-04-15T12:15:46.510Z,484.00
2023-04-15T12:16:48.657Z,483.00
2023-04-15T12:17:51.868Z,482.00
2023-04-15T12:18:47.481Z,483.00
2023-04-15T12:19:46.477Z,483.00
2023-04-15T12:20:46.464Z,482.00
2023-04-15T12:21:46.440Z,479.00
2023-04-15T12:22:46.490Z,477.00
2023-04-15T12:23:46.484Z,475.00
2023-04-15T12:24:46.421Z,475.00
2023-04-15T12:25:46.445Z,474.00
2023-04-15T12:26:46.434Z,475.00
2023-04-15T12:27:46.487Z,475.00
2023-04-15T12:28:46.518Z,477.00